Latest Weather Observations for Tunnack

IDT60801

Issued at 10:35 pm EST Tuesday 29 July 2014 (issued every 30 minutes, with the page automatically refreshed every 10 minutes)

About weather observations | Map of weather stations | Latest weather observations for TAS | Other Formats
Station Details ID: 094195 Name: TUNNACK FIRE STATION Lat: -42.45 Lon: 147.46 Height: 461.5 m
Data from the previous 72 hours. | See also: Recent months at Tunnack
Date/Time
EST
Temp
°C
App
Temp
°C
Dew
Point
Rel
Hum
%
Delta-T
°C
Wind Press
QNH
hPa
Press
MSL
hPa
Rain
since 9 am
mm
Dir
 
Spd
km/h
Gust
km/h
Spd
kts
Gust
kts
29/10:33pm 6.7 -2.0 2.0 72 2.0 WNW 37 56 20 30 991.2 - 3.6
29/10:30pm 6.5 -1.8 2.2 74 1.8 WNW 35 50 19 27 991.0 - 3.6
29/10:00pm 5.2 -5.2 4.0 92 0.5 WNW 48 70 26 38 990.4 991.2 3.6
29/09:30pm 6.5 -4.8 3.3 80 1.4 WNW 52 82 28 44 990.4 - 3.2
29/09:22pm 7.2 -2.6 2.5 72 2.0 WNW 43 80 23 43 990.2 - 2.8
29/09:00pm 6.7 -1.6 2.0 72 2.0 WNW 35 54 19 29 989.4 990.2 2.8
29/08:57pm 6.8 -1.5 2.1 72 2.0 WNW 35 54 19 29 989.4 - 2.8
29/08:55pm 6.5 -1.8 2.2 74 1.8 WNW 35 46 19 25 989.6 - 2.8
29/08:38pm 8.6 -4.0 0.3 56 3.4 WNW 56 96 30 52 989.3 - 2.6
29/08:31pm 8.7 -2.6 0.9 58 3.3 WNW 50 74 27 40 989.1 - 2.6
29/08:30pm 8.5 -2.8 1.2 60 3.1 WNW 50 67 27 36 989.1 - 2.6
29/08:04pm 7.9 -4.6 1.7 65 2.6 WNW 57 76 31 41 988.3 - 2.6
29/08:00pm 8.3 -4.7 1.5 62 2.9 WNW 59 76 32 41 988.3 989.1 2.6
29/07:30pm 7.5 -2.5 2.2 69 2.3 WNW 44 69 24 37 988.4 - 2.6
29/07:00pm 6.4 -2.9 5.0 91 0.6 W 43 80 23 43 988.5 989.3 2.6
29/06:53pm 6.9 -3.7 5.2 89 0.8 W 50 74 27 40 989.0 - 2.6
29/06:46pm 7.8 -6.5 4.7 81 1.4 WNW 69 98 37 53 988.2 - 2.2
29/06:45pm 8.2 -2.4 5.0 80 1.5 NW 50 93 27 50 988.4 - 2.0
29/06:30pm 8.8 -0.5 5.0 77 1.7 NW 43 61 23 33 987.4 - 1.6
29/06:00pm 9.1 -2.4 4.5 73 2.1 WNW 54 72 29 39 986.4 987.2 1.4
29/05:30pm 9.0 -4.0 5.6 79 1.6 WNW 63 83 34 45 986.3 - 1.4
29/05:19pm 9.6 -2.5 6.3 80 1.6 WNW 59 78 32 42 986.8 - 1.2
29/05:18pm 9.8 -2.7 6.2 78 1.7 WNW 61 78 33 42 986.6 - 1.2
29/05:16pm 9.8 1.2 6.5 80 1.6 NW 41 65 22 35 986.6 - 1.2
29/05:00pm 9.4 2.8 6.1 80 1.6 NNW 30 44 16 24 986.1 986.8 1.0
29/04:30pm 9.7 1.3 5.7 76 1.9 NNW 39 56 21 30 986.4 - 1.0
29/04:00pm 10.5 3.2 4.4 66 2.8 NNW 32 50 17 27 986.5 987.3 1.0
29/03:30pm 10.3 1.2 4.2 66 2.8 NW 41 61 22 33 987.1 - 1.0
29/03:00pm 10.3 1.7 4.5 67 2.7 NW 39 57 21 31 987.9 988.6 1.0
29/02:42pm 9.9 2.1 4.9 71 2.3 NW 35 54 19 29 988.6 - 1.0
29/02:30pm 10.2 1.6 4.8 69 2.5 WNW 39 52 21 28 988.5 - 1.0
29/02:01pm 9.9 3.6 5.5 74 2.1 NW 28 46 15 25 988.9 - 1.0
29/02:00pm 9.7 2.9 5.1 73 2.2 NW 30 46 16 25 988.9 989.7 1.0
29/01:54pm 9.5 3.1 5.3 75 2.0 NW 28 46 15 25 989.2 - 1.0
29/01:30pm 8.6 3.0 5.5 81 1.4 NW 24 35 13 19 989.4 - 1.0
29/01:00pm 7.4 1.2 6.0 91 0.7 WNW 28 37 15 20 991.0 991.8 1.0
29/12:30pm 6.4 -2.0 5.5 94 0.4 WNW 39 56 21 30 991.6 - 0.8
29/12:09pm 7.8 1.6 6.1 89 0.8 WNW 28 52 15 28 991.4 - 0.2
29/12:00pm 8.1 2.6 5.9 86 1.0 W 24 33 13 18 991.2 992.0 0.2
29/11:30am 8.7 0.1 4.9 77 1.7 NW 39 52 21 28 991.2 - 0.0
29/11:00am 9.5 -1.0 3.5 66 2.7 NW 48 69 26 37 991.4 992.2 0.0
29/10:43am 8.9 -1.9 5.8 81 1.5 WNW 52 70 28 38 992.0 - 0.0
29/10:39am 9.4 -2.5 5.2 75 1.9 WNW 57 70 31 38 991.9 - 0.0
29/10:36am 9.9 2.3 5.9 76 1.9 NW 35 56 19 30 992.0 - 0.0
29/10:30am 10.3 3.0 5.5 72 2.3 NW 33 48 18 26 991.9 - 0.0
29/10:13am 10.3 3.2 5.5 72 2.3 NW 32 59 17 32 991.6 - 0.0
29/10:11am 10.3 4.0 5.9 74 2.1 NW 28 44 15 24 991.6 - 0.0
29/10:00am 9.4 5.6 8.9 97 0.3 N 19 26 10 14 991.9 992.7 0.0
29/09:30am 9.4 3.8 8.9 97 0.3 N 28 33 15 18 991.6 - 0.0
29/09:00am 9.2 3.5 6.5 83 1.3 NNW 26 35 14 19 991.7 992.6 2.0
29/08:30am 9.3 -0.2 6.7 84 1.2 NNW 46 72 25 39 992.4 - 2.0
29/08:27am 9.5 -0.7 6.8 83 1.3 NNW 50 72 27 39 992.3 - 2.0
29/08:21am 9.2 2.1 8.0 92 0.6 N 35 54 19 29 992.4 - 2.0
29/08:00am 8.6 1.6 8.6 100 0.0 N 35 48 19 26 992.4 993.2 1.8
29/07:30am 8.2 0.8 8.2 100 0.0 N 37 52 20 28 992.7 - 1.8
29/07:00am 8.2 -0.6 8.2 100 0.0 N 44 59 24 32 992.8 993.6 1.6
29/06:40am 8.4 -0.3 8.4 100 0.0 N 44 63 24 34 993.2 - 0.8
29/06:30am 8.4 -0.3 8.4 100 0.0 N 44 59 24 32 993.2 - 0.4
29/06:00am 8.1 -0.1 8.0 99 0.0 N 41 67 22 36 993.8 994.7 0.4
29/05:53am 8.3 0.5 8.2 99 0.0 N 39 67 21 36 993.8 - 0.4
29/05:30am 8.1 1.0 8.0 99 0.0 N 35 46 19 25 994.6 - 0.4
29/05:02am 8.2 1.5 8.1 99 0.0 N 33 56 18 30 995.3 - 0.2
29/05:00am 8.1 1.6 8.0 99 0.0 N 32 44 17 24 995.4 996.3 0.2
29/04:30am 7.6 1.3 7.5 99 0.0 N 30 43 16 23 995.7 - 0.2
29/04:00am 7.4 0.1 7.3 99 0.0 N 35 44 19 24 996.2 997.1 0.2
29/03:30am 7.3 -1.7 7.2 99 0.0 N 44 63 24 34 996.7 - 0.2
29/03:04am 7.2 -1.3 7.1 99 0.0 N 41 59 22 32 997.0 - 0.2
29/03:00am 7.1 -1.0 7.0 99 0.0 N 39 54 21 29 997.1 998.0 0.2
29/02:37am 7.0 -1.5 6.9 99 0.0 N 41 59 22 32 997.5 - 0.2
29/02:30am 7.0 -1.9 6.9 99 0.0 N 43 59 23 32 997.6 - 0.2
29/02:00am 7.0 -1.5 6.9 99 0.0 N 41 54 22 29 998.1 999.0 0.2
29/01:34am 6.4 -1.1 6.3 99 0.0 N 35 54 19 29 998.5 - 0.2
29/01:30am 6.4 -1.5 6.3 99 0.0 N 37 54 20 29 998.5 - 0.2
29/01:00am 6.4 -0.1 6.3 99 0.0 N 30 41 16 22 999.4 1000.3 0.2
29/12:30am 6.6 1.2 6.5 99 0.0 N 24 32 13 17 1000.0 - 0.2
29/12:00am 6.8 0.0 6.7 99 0.0 N 32 43 17 23 1000.4 1001.3 0.2
 
Date/Time
EST
Temp
°C
App
Temp
°C
Dew
Point
Rel
Hum
%
Delta-T
°C
Wind Press
QNH
hPa
Press
MSL
hPa
Rain
since 9 am
mm
Dir
 
Spd
km/h
Gust
km/h
Spd
kts
Gust
kts
28/11:30pm 6.4 -0.1 6.3 99 0.0 N 30 43 16 23 1000.8 - 0.2
28/11:00pm 6.4 -1.1 6.3 99 0.0 N 35 46 19 25 1001.0 1001.9 0.2
28/10:30pm 6.3 -0.9 6.0 98 0.1 N 33 43 18 23 1001.4 - 0.2
28/10:00pm 6.6 -0.6 4.9 89 0.8 N 32 44 17 24 1001.7 1002.6 0.2
28/09:30pm 7.6 0.3 4.4 80 1.4 NNW 32 39 17 21 1001.4 - 0.2
28/09:00pm 8.4 0.9 3.7 72 2.1 NNW 32 43 17 23 1001.5 1002.4 0.2
28/08:38pm 8.5 1.7 5.1 79 1.6 NNW 30 48 16 26 1001.7 - 0.2
28/08:30pm 8.6 1.4 5.2 79 1.6 NNW 32 46 17 25 1001.9 - 0.2
28/08:00pm 8.2 2.3 7.4 95 0.4 NNW 28 37 15 20 1002.2 1003.1 0.2
28/07:30pm 8.7 1.7 7.0 89 0.8 NNW 33 43 18 23 1002.5 - 0.0
28/07:00pm 8.4 1.9 6.4 87 1.0 NNW 30 41 16 22 1002.6 1003.6 0.0
28/06:30pm 8.5 1.7 7.1 91 0.7 NNW 32 46 17 25 1002.2 - 0.0
28/06:00pm 8.6 2.4 6.1 84 1.2 N 28 39 15 21 1002.1 1003.0 0.0
28/05:44pm 9.9 2.3 0.8 53 3.8 NNW 30 50 16 27 1001.8 - 0.0
28/05:30pm 10.1 3.0 1.2 54 3.8 NNW 28 37 15 20 1001.9 - 0.0
28/05:16pm 10.3 2.8 0.9 52 4.0 NW 30 48 16 26 1002.0 - 0.0
28/05:00pm 9.8 3.2 1.9 58 3.4 NW 26 35 14 19 1002.4 1003.3 0.0
28/04:30pm 11.2 2.4 1.2 50 4.3 NW 37 52 20 28 1002.4 - 0.0
28/04:24pm 11.5 3.6 1.2 49 4.4 NW 32 50 17 27 1002.5 - 0.0
28/04:00pm 11.7 5.0 1.4 49 4.5 NW 26 41 14 22 1002.5 1003.5 0.0
28/03:30pm 11.8 3.3 0.9 47 4.7 NW 35 52 19 28 1002.9 - 0.0
28/03:00pm 12.8 5.4 2.1 48 4.8 NW 30 39 16 21 1002.9 1003.9 0.0
28/02:30pm 13.3 5.4 1.3 44 5.3 WNW 32 48 17 26 1003.1 - 0.0
28/02:11pm 13.3 5.2 1.0 43 5.4 WNW 33 52 18 28 1003.0 - 0.0
28/02:00pm 13.0 2.9 0.4 42 5.4 WNW 43 57 23 31 1003.0 1004.0 0.0
28/01:39pm 13.1 3.3 -0.2 40 5.6 WNW 41 59 22 32 1003.3 - 0.0
28/01:30pm 13.3 4.8 1.0 43 5.4 WNW 35 46 19 25 1003.4 - 0.0
28/01:00pm 12.6 4.7 2.2 49 4.7 WNW 33 50 18 27 1003.7 1004.6 0.0
28/12:30pm 13.0 4.2 3.4 52 4.4 NW 39 48 21 26 1004.1 - 0.0
28/12:00pm 12.9 4.1 3.8 54 4.2 NW 39 54 21 29 1004.6 1005.6 0.0
28/11:32am 11.7 2.8 3.2 56 3.8 NW 39 57 21 31 1005.1 - 0.0
28/11:30am 12.2 3.5 3.9 57 3.8 NW 39 50 21 27 1005.1 - 0.0
28/11:03am 12.1 2.4 3.9 57 3.8 NW 44 63 24 34 1005.2 - 0.0
28/11:00am 12.0 2.5 4.0 58 3.7 NW 43 59 23 32 1005.3 1006.3 0.0
28/10:40am 11.9 3.1 3.7 57 3.8 NW 39 63 21 34 1005.6 - 0.0
28/10:30am 11.7 3.7 4.0 59 3.5 NW 35 46 19 25 1005.8 - 0.0
28/10:00am 10.9 3.5 4.1 63 3.1 NW 32 39 17 21 1006.0 1006.9 0.0
28/09:33am 10.6 3.7 4.5 66 2.8 NW 30 57 16 31 1005.9 - 0.0
28/09:30am 10.5 3.7 4.9 68 2.6 NNW 30 43 16 23 1005.9 - 0.0
28/09:00am 9.6 5.3 7.9 89 0.8 NNW 20 28 11 15 1006.2 1007.2 0.2
28/08:30am 8.7 3.4 8.6 99 0.0 NNW 26 32 14 17 1006.3 - 0.2
28/08:00am 8.2 3.2 8.1 99 0.0 N 24 30 13 16 1006.4 1007.4 0.2
28/07:30am 8.3 4.7 8.2 99 0.0 N 17 22 9 12 1006.8 - 0.2
28/07:00am 8.6 4.7 8.5 99 0.0 NNW 19 26 10 14 1007.0 1008.0 0.2
28/06:30am 8.5 3.6 8.4 99 0.0 N 24 32 13 17 1006.8 - 0.2
28/06:00am 8.6 2.6 8.5 99 0.0 N 30 41 16 22 1006.6 1007.6 0.0
28/05:30am 8.7 3.1 8.6 99 0.0 N 28 41 15 22 1006.6 - 0.0
28/05:00am 8.6 3.3 8.5 99 0.0 N 26 33 14 18 1006.6 1007.6 0.0
28/04:30am 8.4 1.9 8.3 99 0.0 N 32 43 17 23 1006.8 - 0.0
28/04:00am 8.3 1.6 8.2 99 0.0 N 33 43 18 23 1007.1 1008.1 0.0
28/03:30am 8.1 1.6 8.0 99 0.0 N 32 41 17 22 1007.3 - 0.0
28/03:00am 8.3 2.2 8.2 99 0.0 N 30 43 16 23 1008.0 1009.0 0.0
28/02:30am 7.7 2.9 7.4 98 0.1 N 22 32 12 17 1008.6 - 0.0
28/02:00am 7.2 2.7 7.1 99 0.0 N 20 26 11 14 1008.9 1009.9 0.0
28/01:30am 7.4 2.9 7.1 98 0.1 N 20 26 11 14 1009.1 - 0.0
28/01:00am 7.2 2.9 6.9 98 0.1 N 19 24 10 13 1009.3 1010.3 0.0
28/12:30am 7.5 4.0 7.2 98 0.1 N 15 22 8 12 1009.8 - 0.0
28/12:00am 7.2 3.7 7.1 99 0.0 N 15 20 8 11 1010.2 1011.2 0.0
 
Date/Time
EST
Temp
°C
App
Temp
°C
Dew
Point
Rel
Hum
%
Delta-T
°C
Wind Press
QNH
hPa
Press
MSL
hPa
Rain
since 9 am
mm
Dir
 
Spd
km/h
Gust
km/h
Spd
kts
Gust
kts
27/11:30pm 6.8 2.8 6.8 100 0.0 N 17 24 9 13 1010.6 - 0.0
27/11:00pm 6.5 3.2 6.5 100 0.0 N 13 19 7 10 1011.0 1012.0 0.0
27/10:30pm 6.6 3.3 6.6 100 0.0 N 13 20 7 11 1011.5 - 0.0
27/10:00pm 7.0 4.2 7.0 100 0.0 N 11 15 6 8 1012.0 1013.1 0.0
27/09:30pm 7.0 3.5 7.0 100 0.0 N 15 20 8 11 1012.3 - 0.0
27/09:00pm 7.1 3.2 7.0 99 0.0 N 17 24 9 13 1012.2 1013.3 0.0
27/08:30pm 7.7 3.9 7.6 99 0.0 N 17 26 9 14 1012.6 - 0.0
27/08:00pm 7.6 3.2 7.5 99 0.0 N 20 26 11 14 1012.6 1013.6 0.0
27/07:30pm 7.7 3.9 7.6 99 0.0 N 17 22 9 12 1013.0 - 0.0
27/07:00pm 7.5 2.7 7.2 98 0.1 N 22 30 12 16 1012.9 1013.9 0.0
27/06:30pm 7.2 3.3 7.1 99 0.0 N 17 22 9 12 1013.0 - 0.0
27/06:00pm 6.6 4.5 6.5 99 0.0 NNE 7 13 4 7 1013.2 1014.2 0.0
27/05:30pm 7.1 4.9 6.2 94 0.4 N 7 11 4 6 1013.3 - 0.0
27/05:00pm 8.0 4.9 7.1 94 0.4 N 13 19 7 10 1013.5 1014.6 0.0
27/04:30pm 8.2 5.5 7.4 95 0.4 NNE 11 15 6 8 1013.5 - 0.0
27/04:00pm 7.9 5.7 7.8 99 0.0 N 9 15 5 8 1013.8 1014.9 0.0
27/03:30pm 7.5 3.1 7.4 99 0.0 N 20 30 11 16 1013.8 - 0.0
27/03:00pm 7.4 4.9 6.5 94 0.4 NE 9 15 5 8 1014.0 1015.1 0.0
27/02:30pm 7.5 3.9 6.9 96 0.3 N 15 22 8 12 1014.4 - 0.0
27/02:00pm 6.9 3.3 6.8 99 0.0 N 15 22 8 12 1015.1 1016.1 0.0
27/01:30pm 8.1 3.9 5.9 86 1.0 N 17 24 9 13 1015.2 - 0.0
27/01:00pm 8.8 5.2 6.9 88 0.9 NNE 15 20 8 11 1015.7 1016.8 0.0
27/12:30pm 7.6 4.7 6.7 94 0.4 N 11 15 6 8 1016.5 - 0.0
27/12:00pm 7.2 2.0 5.3 88 0.9 N 22 28 12 15 1017.1 1018.2 0.0
27/11:30am 9.3 4.5 5.7 78 1.7 N 20 26 11 14 1017.4 - 0.0
27/11:00am 9.8 5.3 6.3 79 1.7 N 19 22 10 12 1017.8 1018.9 0.0
27/10:30am 8.6 7.0 8.6 100 0.0 N 7 11 4 6 1018.5 - 0.0
27/10:00am 6.8 6.1 6.8 100 0.0 CALM 0 0 0 0 1019.1 1020.3 0.0
27/09:30am 4.6 3.4 4.6 100 0.0 CALM 0 0 0 0 1019.5 - 0.0
27/09:00am 3.9 1.4 3.9 100 0.0 W 6 7 3 4 1019.7 1020.8 0.2
27/08:30am 2.8 0.9 2.8 100 0.0 N 2 6 1 3 1019.5 - 0.2
27/08:00am 0.8 -1.1 0.8 100 0.0 CALM 0 0 0 0 1019.4 1020.5 0.2
27/07:30am 1.5 -1.6 1.5 100 0.0 E 7 7 4 4 1019.1 - 0.2
27/07:00am -0.3 -3.5 -0.3 100 0.0 E 6 7 3 4 1019.0 1020.2 0.2
27/06:30am -0.3 -3.1 -0.3 100 0.0 E 4 7 2 4 1019.1 - 0.2
27/06:00am 1.1 -1.9 1.1 100 0.0 ENE 6 7 3 4 1019.1 1020.3 0.2
27/05:30am 0.4 -2.9 0.4 100 0.0 E 7 7 4 4 1019.3 - 0.2
27/05:00am 0.8 -2.4 0.8 100 0.0 SE 7 9 4 5 1019.5 1020.6 0.2
27/04:30am 2.0 0.3 2.0 100 0.0 CALM 0 0 0 0 1019.9 - 0.2
27/04:00am -0.1 -2.1 -0.1 100 0.0 CALM 0 0 0 0 1019.9 1021.0 0.2
27/03:30am 0.2 -3.5 0.2 100 0.0 ESE 9 11 5 6 1019.9 - 0.2
27/03:00am 2.2 0.2 2.2 100 0.0 SSE 2 6 1 3 1020.2 1021.3 0.2
27/02:30am 0.6 -2.6 0.6 100 0.0 SE 7 9 4 5 1020.2 - 0.2
27/02:00am 1.7 -0.4 1.7 100 0.0 W 2 7 1 4 1020.5 1021.6 0.2
27/01:30am 0.1 -1.9 0.1 100 0.0 CALM 0 0 0 0 1020.6 - 0.2
27/01:00am 0.2 -1.8 0.2 100 0.0 CALM 0 0 0 0 1020.5 1021.6 0.2
27/12:30am 1.1 -0.7 1.1 100 0.0 CALM 0 0 0 0 1020.8 - 0.2
27/12:00am 1.6 -0.1 1.6 100 0.0 CALM 0 0 0 0 1021.0 1022.2 0.2
 
Date/Time
EST
Temp
°C
App
Temp
°C
Dew
Point
Rel
Hum
%
Delta-T
°C
Wind Press
QNH
hPa
Press
MSL
hPa
Rain
since 9 am
mm
Dir
 
Spd
km/h
Gust
km/h
Spd
kts
Gust
kts
26/11:30pm 0.9 -0.9 0.9 100 0.0 CALM 0 0 0 0 1021.2 - 0.2
26/11:00pm 1.8 -0.3 1.8 100 0.0 ESE 2 6 1 3 1021.2 1022.4 0.0

Other Formats:

Comma delimited format used in spreadsheet applications
http://www.bom.gov.au/fwo/IDT60801/IDT60801.94960.axf

JavaScript Object Notation format (JSON) in row-major order
http://www.bom.gov.au/fwo/IDT60801/IDT60801.94960.json